Time;durP1;ratioP1;P1;durP2;ratioP2;P2;SDS_P1;SDS_P2;PMS_P1;PMS_P2;Temp;Humidity;BMP_temperature;BMP_pressure;BME280_temperature;BME280_humidity;BME280_pressure;Samples;Min_cycle;Max_cycle;Signal;HPM_P1;HPM_P2
2021/03/18 00:01:09;;;;;;;10.27;6.87;;;0.50;99.90;;;;;;5121342;28;20478;-67
2021/03/18 00:03:38;;;;;;;7.43;6.07;;;0.50;99.90;;;;;;5122309;28;20431;-68
2021/03/18 00:06:08;;;;;;;10.30;7.17;;;0.50;99.90;;;;;;5119575;28;20793;-68
2021/03/18 00:08:36;;;;;;;10.87;6.80;;;0.40;99.90;;;;;;5119169;28;20499;-68
2021/03/18 00:11:09;;;;;;;7.70;6.87;;;0.40;99.90;;;;;;5119659;28;20428;-68
2021/03/18 00:13:39;;;;;;;9.20;6.33;;;0.40;99.90;;;;;;5101445;28;20813;-70
2021/03/18 00:16:08;;;;;;;10.37;6.10;;;0.20;99.90;;;;;;5117944;28;20997;-68
2021/03/18 00:18:42;;;;;;;9.43;6.87;;;0.10;99.90;;;;;;5101429;28;20605;-68
2021/03/18 00:21:10;;;;;;;6.90;6.20;;;0.10;99.90;;;;;;5119504;28;20911;-69
2021/03/18 00:23:39;;;;;;;9.17;6.63;;;0.00;99.90;;;;;;5082105;28;20535;-68
2021/03/18 00:26:08;;;;;;;8.70;5.90;;;0.00;99.90;;;;;;5104410;28;20430;-70
2021/03/18 00:28:37;;;;;;;11.10;6.80;;;-0.10;99.90;;;;;;5100708;28;20450;-69
2021/03/18 00:31:05;;;;;;;9.17;6.47;;;-0.20;99.90;;;;;;5118657;28;21193;-68
2021/03/18 00:33:34;;;;;;;8.30;6.73;;;-0.20;99.90;;;;;;5118993;28;20434;-70
2021/03/18 00:36:03;;;;;;;10.37;6.57;;;-0.30;99.90;;;;;;5100412;28;20503;-68
2021/03/18 00:38:35;;;;;;;11.10;6.70;;;-0.40;99.90;;;;;;5118886;28;20468;-68
2021/03/18 00:41:07;;;;;;;10.40;6.90;;;-0.40;99.90;;;;;;5119100;28;20432;-69
2021/03/18 00:43:35;;;;;;;10.33;7.33;;;-0.50;99.90;;;;;;5117538;28;20435;-68
2021/03/18 00:46:04;;;;;;;10.73;7.60;;;-0.50;99.90;;;;;;5116175;28;20495;-70
2021/03/18 00:48:33;;;;;;;9.70;7.43;;;-0.40;99.90;;;;;;5101300;28;20428;-67
2021/03/18 00:51:04;;;;;;;10.43;7.13;;;-0.30;99.90;;;;;;5119527;28;20438;-69
2021/03/18 00:53:34;;;;;;;10.60;7.00;;;-0.40;99.90;;;;;;5099936;28;20543;-68
2021/03/18 00:56:05;;;;;;;11.10;7.43;;;-0.50;99.90;;;;;;5102478;28;20911;-67
2021/03/18 00:58:33;;;;;;;9.30;7.63;;;-0.50;99.90;;;;;;5118746;28;20516;-67
2021/03/18 01:01:03;;;;;;;12.77;9.03;;;-0.30;99.90;;;;;;5119121;28;20972;-68
2021/03/18 01:03:36;;;;;;;20.50;9.20;;;-0.30;99.90;;;;;;5119883;28;20483;-67
2021/03/18 01:06:07;;;;;;;12.00;9.50;;;-0.30;99.90;;;;;;5119608;28;20424;-69
2021/03/18 01:08:37;;;;;;;11.27;8.40;;;-0.20;99.90;;;;;;5100454;28;20493;-68
2021/03/18 01:11:08;;;;;;;11.87;9.50;;;-0.30;99.90;;;;;;5123813;28;20424;-68
2021/03/18 01:13:37;;;;;;;12.03;8.70;;;-0.30;99.90;;;;;;5119082;28;20432;-68
2021/03/18 01:16:10;;;;;;;13.17;8.37;;;-0.20;99.90;;;;;;5117631;28;20505;-68
2021/03/18 01:18:40;;;;;;;12.73;8.60;;;-0.20;99.90;;;;;;5118220;28;20567;-69
2021/03/18 01:21:10;;;;;;;15.40;9.17;;;-0.20;99.90;;;;;;5117538;28;20443;-67
2021/03/18 01:23:38;;;;;;;16.17;9.03;;;-0.20;99.90;;;;;;5118890;28;20458;-68
2021/03/18 01:26:08;;;;;;;11.53;9.50;;;-0.30;99.90;;;;;;5118479;28;20868;-68
2021/03/18 01:28:38;;;;;;;10.73;7.80;;;-0.40;99.90;;;;;;5118290;28;20461;-68
2021/03/18 01:31:08;;;;;;;17.23;9.80;;;-0.40;99.90;;;;;;5098970;28;20479;-68
2021/03/18 01:33:36;;;;;;;14.70;10.13;;;-0.40;99.90;;;;;;5118229;28;20428;-69
2021/03/18 01:36:07;;;;;;;10.40;7.80;;;-0.30;99.90;;;;;;5098976;28;20827;-68
2021/03/18 01:38:59;;;;;;;13.90;9.83;;;-0.40;99.90;;;;;;5117324;28;20542;-69
2021/03/18 01:41:28;;;;;;;13.13;8.67;;;-0.50;99.90;;;;;;5120186;28;21026;-68
2021/03/18 01:43:57;;;;;;;14.60;8.90;;;-0.50;99.90;;;;;;5083820;28;20553;-70
2021/03/18 01:46:25;;;;;;;12.73;8.27;;;-0.60;99.90;;;;;;5116948;28;20464;-69
2021/03/18 01:48:53;;;;;;;10.00;7.23;;;-0.70;99.90;;;;;;5119538;28;21052;-66
2021/03/18 01:51:21;;;;;;;14.20;9.67;;;-0.70;99.90;;;;;;5118467;28;20435;-69
2021/03/18 01:53:48;;;;;;;14.60;10.23;;;-0.50;99.90;;;;;;5116720;28;20442;-68
2021/03/18 01:56:17;;;;;;;13.90;9.37;;;-0.50;99.90;;;;;;5117746;28;20427;-70
2021/03/18 01:58:46;;;;;;;15.80;9.97;;;-0.50;99.90;;;;;;5118032;28;20893;-69
2021/03/18 02:01:18;;;;;;;12.77;10.23;;;-0.50;99.90;;;;;;5107429;28;20468;-68
2021/03/18 02:03:47;;;;;;;14.60;8.73;;;-0.50;99.90;;;;;;5097923;28;20455;-69
2021/03/18 02:06:15;;;;;;;17.93;9.30;;;-0.50;99.90;;;;;;5078921;28;20859;-71
2021/03/18 02:08:42;;;;;;;15.23;9.90;;;-0.50;99.90;;;;;;5096143;28;20499;-68
2021/03/18 02:11:10;;;;;;;13.77;10.83;;;-0.40;99.90;;;;;;5080641;28;20531;-68
2021/03/18 02:13:37;;;;;;;15.07;9.93;;;-0.40;99.90;;;;;;5078314;28;20770;-70
2021/03/18 02:16:07;;;;;;;13.03;9.67;;;-0.40;99.90;;;;;;5096625;28;20543;-71
2021/03/18 02:18:47;;;;;;;19.50;11.50;;;-0.40;99.90;;;;;;5097159;28;20456;-69
2021/03/18 02:24:47;;;;;;;12.90;9.70;;;-0.60;99.90;;;;;;5079786;28;20461;-68
2021/03/18 02:28:00;;;;;;;14.77;9.70;;;-0.60;99.90;;;;;;5097170;28;20464;-68
2021/03/18 02:30:54;;;;;;;16.27;9.07;;;-0.50;99.90;;;;;;5068443;28;20945;-68
2021/03/18 02:34:16;;;;;;;18.43;11.43;;;-0.40;99.90;;;;;;5077834;28;20490;-68
2021/03/18 02:36:48;;;;;;;12.70;10.57;;;-0.30;99.90;;;;;;5022193;28;20805;-68
2021/03/18 02:39:24;;;;;;;15.07;10.63;;;-0.20;99.90;;;;;;5079085;28;20561;-67
2021/03/18 02:41:55;;;;;;;14.50;9.43;;;-0.10;99.90;;;;;;5078604;28;20432;-68
2021/03/18 02:44:26;;;;;;;16.27;10.67;;;-0.10;99.90;;;;;;5098400;28;20448;-67
2021/03/18 02:47:00;;;;;;;15.60;11.47;;;0.00;99.90;;;;;;5106225;28;20532;-69
2021/03/18 02:49:30;;;;;;;14.00;9.53;;;0.00;99.90;;;;;;5110155;28;20431;-67
2021/03/18 02:52:02;;;;;;;13.23;9.67;;;0.00;99.90;;;;;;5086490;28;20444;-68
2021/03/18 02:54:30;;;;;;;13.60;9.43;;;0.10;99.90;;;;;;5100959;28;20519;-68
2021/03/18 02:57:01;;;;;;;14.37;9.97;;;0.00;99.90;;;;;;5082144;28;20432;-67
2021/03/18 02:59:33;;;;;;;11.17;8.60;;;0.10;99.90;;;;;;5082427;28;20517;-68
2021/03/18 03:02:03;;;;;;;11.30;9.10;;;0.00;99.90;;;;;;5100537;28;20472;-68
2021/03/18 03:07:29;;;;;;;13.77;9.40;;;-0.10;99.90;;;;;;5101883;28;20800;-68
2021/03/18 03:09:58;;;;;;;14.20;9.37;;;-0.20;99.90;;;;;;5098729;28;20477;-68
2021/03/18 03:12:28;;;;;;;11.50;8.30;;;-0.30;99.90;;;;;;5099405;28;20486;-68
2021/03/18 03:14:57;;;;;;;14.90;9.80;;;-0.40;99.90;;;;;;5100827;28;20461;-67
2021/03/18 03:17:27;;;;;;;11.17;8.53;;;-0.30;99.90;;;;;;5100025;28;20555;-68
2021/03/18 03:19:57;;;;;;;12.97;9.77;;;-0.40;99.90;;;;;;5100563;28;20521;-67
2021/03/18 03:22:25;;;;;;;12.83;7.40;;;-0.40;99.90;;;;;;5100909;28;20441;-71
2021/03/18 03:24:56;;;;;;;10.27;8.67;;;-0.50;99.90;;;;;;5082396;28;20437;-67
2021/03/18 03:27:25;;;;;;;13.60;9.10;;;-0.60;99.90;;;;;;5081814;28;20460;-69
2021/03/18 03:29:54;;;;;;;14.10;9.60;;;-0.70;99.90;;;;;;5100931;28;20844;-68
2021/03/18 03:32:27;;;;;;;12.13;8.77;;;-0.70;99.90;;;;;;5098620;28;20483;-66
2021/03/18 03:34:57;;;;;;;11.63;8.90;;;-0.80;99.90;;;;;;5066425;28;20437;-68
2021/03/18 03:37:25;;;;;;;13.27;8.70;;;-0.90;99.90;;;;;;5082922;28;20457;-70
2021/03/18 03:39:54;;;;;;;12.03;8.87;;;-1.00;99.90;;;;;;5099712;28;20456;-67
2021/03/18 03:42:21;;;;;;;15.07;9.00;;;-0.80;99.90;;;;;;5099441;28;20749;-68
2021/03/18 03:44:49;;;;;;;12.07;8.90;;;-0.80;99.90;;;;;;5099559;28;20424;-68
2021/03/18 03:47:17;;;;;;;17.70;10.90;;;-0.80;99.90;;;;;;5097902;28;20555;-67
2021/03/18 03:49:45;;;;;;;13.50;9.20;;;-0.90;99.90;;;;;;5099959;28;20441;-68
2021/03/18 03:52:26;;;;;;;14.50;9.50;;;-0.80;99.90;;;;;;5080462;28;20915;-68
2021/03/18 03:55:00;;;;;;;15.13;10.20;;;-0.80;99.90;;;;;;5098601;28;20456;-68
2021/03/18 03:57:34;;;;;;;14.03;9.17;;;-0.80;99.90;;;;;;5099020;28;20424;-69
2021/03/18 04:00:05;;;;;;;12.37;9.30;;;-0.80;99.90;;;;;;5080447;28;20468;-68
2021/03/18 04:02:53;;;;;;;14.90;9.80;;;-0.80;99.90;;;;;;5099428;28;20449;-69
2021/03/18 04:05:22;;;;;;;12.93;8.97;;;-0.70;99.90;;;;;;5064549;28;20454;-68
2021/03/18 04:07:56;;;;;;;12.77;8.90;;;-0.70;99.90;;;;;;5080966;28;20464;-68
2021/03/18 04:10:25;;;;;;;13.57;8.77;;;-0.70;99.90;;;;;;5098702;28;20540;-68
2021/03/18 04:13:19;;;;;;;16.83;11.40;;;-0.60;99.90;;;;;;5098669;28;20458;-68
2021/03/18 04:15:48;;;;;;;10.80;8.80;;;-0.50;99.90;;;;;;5098069;28;20468;-68
2021/03/18 04:18:19;;;;;;;13.77;9.40;;;-0.40;99.90;;;;;;5080246;28;20547;-67
2021/03/18 04:20:48;;;;;;;14.60;10.70;;;-0.40;99.90;;;;;;5080563;28;20444;-68
2021/03/18 04:23:16;;;;;;;14.17;9.23;;;-0.40;99.90;;;;;;5081285;28;20440;-68
2021/03/18 04:25:45;;;;;;;12.43;11.10;;;-0.30;99.90;;;;;;5098517;28;20425;-68
2021/03/18 04:28:13;;;;;;;14.43;8.70;;;-0.30;99.90;;;;;;5098368;28;20504;-68
2021/03/18 04:30:41;;;;;;;13.73;9.60;;;-0.30;99.90;;;;;;5097419;28;20502;-69
2021/03/18 04:33:11;;;;;;;14.40;9.83;;;-0.30;99.90;;;;;;5098705;28;20835;-67
2021/03/18 04:35:39;;;;;;;16.40;9.63;;;-0.30;99.90;;;;;;5098339;28;20478;-68
2021/03/18 04:38:08;;;;;;;14.10;9.80;;;-0.30;99.90;;;;;;5098976;28;20431;-68
2021/03/18 04:40:36;;;;;;;14.30;9.47;;;-0.30;99.90;;;;;;5098416;28;20460;-67
2021/03/18 04:43:04;;;;;;;19.70;10.33;;;-0.30;99.90;;;;;;5079595;28;20435;-69
2021/03/18 04:45:32;;;;;;;16.13;9.60;;;-0.20;99.90;;;;;;5082657;28;20923;-67
2021/03/18 04:48:01;;;;;;;14.07;9.20;;;-0.20;99.90;;;;;;5099540;28;20474;-68
2021/03/18 04:50:55;;;;;;;15.07;9.63;;;-0.20;99.90;;;;;;5118694;28;20432;-68
2021/03/18 04:53:23;;;;;;;14.73;9.30;;;-0.20;99.90;;;;;;5118518;28;20450;-67
2021/03/18 04:55:50;;;;;;;18.73;10.73;;;-0.20;99.90;;;;;;5118280;28;20439;-71
2021/03/18 04:58:21;;;;;;;14.23;9.90;;;-0.10;99.90;;;;;;5117917;28;20436;-67
2021/03/18 05:00:50;;;;;;;12.40;8.93;;;-0.10;99.90;;;;;;5117178;28;20524;-67
2021/03/18 05:03:17;;;;;;;28.53;10.50;;;-0.10;99.90;;;;;;5118830;28;20443;-67
2021/03/18 05:05:46;;;;;;;16.60;10.77;;;-0.10;99.90;;;;;;5101566;28;20446;-67
2021/03/18 05:08:17;;;;;;;14.43;9.40;;;-0.10;99.90;;;;;;5118040;28;20435;-68
2021/03/18 05:10:47;;;;;;;16.00;9.77;;;-0.20;99.90;;;;;;5118130;28;20488;-68
2021/03/18 05:13:15;;;;;;;15.93;9.23;;;-0.20;99.90;;;;;;5118282;28;20431;-69
2021/03/18 05:15:46;;;;;;;13.33;10.10;;;-0.20;99.90;;;;;;5076574;28;20460;-67
2021/03/18 05:18:17;;;;;;;14.17;11.73;;;-0.20;99.90;;;;;;5097822;28;20429;-67
2021/03/18 05:20:47;;;;;;;14.17;10.27;;;-0.20;99.90;;;;;;5098223;28;20443;-68
2021/03/18 05:23:17;;;;;;;17.20;10.10;;;-0.20;99.90;;;;;;5080766;28;20432;-68
2021/03/18 05:25:45;;;;;;;18.47;11.33;;;-0.20;99.90;;;;;;5093248;28;20428;-68
2021/03/18 05:28:13;;;;;;;19.80;10.53;;;-0.10;99.90;;;;;;5083789;28;20421;-68
2021/03/18 05:30:42;;;;;;;16.80;10.23;;;-0.10;99.90;;;;;;5102284;28;20475;-67
2021/03/18 05:33:10;;;;;;;19.77;11.57;;;-0.10;99.90;;;;;;5099899;28;20432;-68
2021/03/18 05:35:41;;;;;;;15.97;10.73;;;-0.10;99.90;;;;;;5109972;28;20454;-68
2021/03/18 05:38:10;;;;;;;19.13;11.23;;;-0.20;99.90;;;;;;5117631;28;20436;-67
2021/03/18 05:40:38;;;;;;;16.47;10.60;;;-0.20;99.90;;;;;;5099347;28;20436;-71
2021/03/18 05:43:07;;;;;;;14.37;10.77;;;-0.30;99.90;;;;;;5098910;28;20436;-68
2021/03/18 05:45:35;;;;;;;13.93;10.00;;;-0.20;99.90;;;;;;5110318;28;20863;-68
2021/03/18 05:48:04;;;;;;;16.63;10.70;;;-0.20;99.90;;;;;;5117716;28;20424;-69
2021/03/18 05:50:58;;;;;;;17.67;10.53;;;-0.10;99.90;;;;;;5099140;28;20493;-68
2021/03/18 05:53:28;;;;;;;14.10;11.40;;;0.10;99.90;;;;;;5117512;28;20440;-68
2021/03/18 05:55:58;;;;;;;14.70;9.73;;;0.20;99.90;;;;;;5116668;28;20439;-68
2021/03/18 05:58:26;;;;;;;16.20;10.60;;;0.30;99.90;;;;;;5116601;28;20439;-70
2021/03/18 06:00:53;;;;;;;14.20;9.30;;;0.40;99.90;;;;;;5115852;28;20497;-68
2021/03/18 06:03:21;;;;;;;13.43;9.13;;;0.50;99.90;;;;;;5116582;28;20428;-67
2021/03/18 06:06:02;;;;;;;14.87;9.13;;;0.70;99.90;;;;;;5116471;28;20439;-67
2021/03/18 06:08:30;;;;;;;13.53;9.30;;;0.80;99.90;;;;;;5116742;28;20471;-67
2021/03/18 06:10:57;;;;;;;11.63;9.03;;;0.90;99.90;;;;;;5115951;28;20434;-68
2021/03/18 06:13:25;;;;;;;12.50;9.07;;;1.00;99.90;;;;;;5116158;28;20436;-69
2021/03/18 06:15:52;;;;;;;17.33;9.70;;;1.00;99.90;;;;;;5115827;28;20480;-68
2021/03/18 06:18:20;;;;;;;15.00;9.70;;;0.90;99.90;;;;;;5098851;28;21012;-69
2021/03/18 06:20:50;;;;;;;14.67;9.93;;;0.90;99.90;;;;;;5116175;28;20966;-70
2021/03/18 06:23:19;;;;;;;17.90;11.57;;;1.00;99.90;;;;;;5102190;28;20454;-68
2021/03/18 06:25:48;;;;;;;12.90;9.37;;;1.00;99.90;;;;;;5120932;28;20459;-68
2021/03/18 06:28:21;;;;;;;17.93;10.73;;;1.00;99.90;;;;;;5121030;28;20432;-68
2021/03/18 06:31:01;;;;;;;13.77;9.50;;;1.30;99.90;;;;;;5101938;28;20464;-70
2021/03/18 06:33:30;;;;;;;13.50;8.27;;;1.90;99.90;;;;;;5121773;28;20431;-68
2021/03/18 06:36:20;;;;;;;13.67;9.00;;;1.80;99.90;;;;;;5103141;28;20930;-68
2021/03/18 06:39:03;;;;;;;15.97;10.67;;;1.60;99.90;;;;;;5121214;28;20459;-69
2021/03/18 06:41:33;;;;;;;13.33;9.70;;;1.40;99.90;;;;;;5121924;28;20530;-68
2021/03/18 06:44:02;;;;;;;15.30;9.53;;;1.30;99.90;;;;;;5121875;28;20431;-68
2021/03/18 06:46:29;;;;;;;17.63;10.33;;;1.30;99.90;;;;;;5121006;28;20513;-69
2021/03/18 06:49:10;;;;;;;12.13;9.63;;;1.30;99.90;;;;;;5121979;28;20438;-68
2021/03/18 06:51:38;;;;;;;15.93;11.17;;;1.40;99.90;;;;;;5122396;28;20446;-68
2021/03/18 06:54:32;;;;;;;18.53;10.37;;;1.50;99.90;;;;;;5122725;27;20474;-68
2021/03/18 06:57:01;;;;;;;17.23;9.63;;;1.60;99.90;;;;;;5096442;28;20460;-64
2021/03/18 06:59:31;;;;;;;13.00;9.20;;;2.00;99.90;;;;;;5080182;28;20472;-64
2021/03/18 07:02:06;;;;;;;11.90;8.03;;;2.60;99.90;;;;;;5080288;28;20480;-68
2021/03/18 07:04:59;;;;;;;11.33;8.70;;;3.10;99.90;;;;;;5077285;28;20456;-64
2021/03/18 07:07:28;;;;;;;7.53;6.63;;;3.80;99.90;;;;;;5077324;28;20477;-65
2021/03/18 07:09:57;;;;;;;9.67;8.27;;;4.10;99.90;;;;;;5059477;28;20441;-67
2021/03/18 07:12:28;;;;;;;11.07;9.60;;;3.50;99.90;;;;;;5077410;28;20778;-64
2021/03/18 07:14:59;;;;;;;10.67;7.60;;;3.10;99.90;;;;;;5077277;28;20445;-65
2021/03/18 07:17:31;;;;;;;10.33;7.77;;;3.20;99.90;;;;;;5077473;28;20473;-64
2021/03/18 07:20:10;;;;;;;11.33;7.70;;;3.30;99.90;;;;;;5076242;28;20863;-66
2021/03/18 07:22:42;;;;;;;9.53;7.37;;;3.00;99.90;;;;;;5059518;28;20798;-68
2021/03/18 07:25:13;;;;;;;10.50;6.67;;;3.30;99.90;;;;;;5077548;28;20425;-65
2021/03/18 07:27:48;;;;;;;13.33;7.90;;;3.10;99.90;;;;;;5076987;28;20404;-63
2021/03/18 07:30:26;;;;;;;11.20;7.27;;;3.00;99.90;;;;;;5045644;28;20451;-64
2021/03/18 07:32:56;;;;;;;11.10;7.60;;;2.90;99.90;;;;;;5097840;28;20442;-64
2021/03/18 07:35:26;;;;;;;14.33;7.30;;;2.90;99.90;;;;;;5096446;28;20440;-66
2021/03/18 07:37:54;;;;;;;11.70;8.90;;;2.70;99.90;;;;;;5079083;28;20429;-65
2021/03/18 07:40:25;;;;;;;12.60;8.30;;;3.10;99.90;;;;;;5079342;28;20833;-65
2021/03/18 07:42:54;;;;;;;19.17;11.67;;;3.40;99.90;;;;;;5097368;28;20729;-64
2021/03/18 07:45:24;;;;;;;10.27;7.27;;;4.20;99.90;;;;;;5095393;28;20923;-66
2021/03/18 07:47:52;;;;;;;14.97;8.40;;;5.60;99.90;;;;;;5096639;28;20435;-65
2021/03/18 07:50:29;;;;;;;13.67;8.50;;;5.90;99.90;;;;;;5097196;28;20803;-65
2021/03/18 07:52:59;;;;;;;14.40;8.10;;;6.30;99.90;;;;;;5096342;28;20915;-65
2021/03/18 07:55:31;;;;;;;11.23;7.27;;;6.90;99.90;;;;;;5096364;28;20466;-65
2021/03/18 07:57:59;;;;;;;11.77;7.43;;;7.80;98.90;;;;;;5094896;28;20412;-64
2021/03/18 08:00:27;;;;;;;12.67;7.63;;;8.60;96.20;;;;;;5095205;28;20486;-65
2021/03/18 08:03:24;;;;;;;12.93;7.73;;;8.30;95.20;;;;;;5078253;28;20475;-64
2021/03/18 08:05:52;;;;;;;14.03;10.20;;;7.60;96.30;;;;;;5095632;28;20417;-63
2021/03/18 08:08:35;;;;;;;11.93;8.13;;;7.10;97.30;;;;;;5096832;28;20454;-63
2021/03/18 08:11:06;;;;;;;11.97;8.17;;;6.40;98.60;;;;;;5078383;28;20446;-64
2021/03/18 08:13:37;;;;;;;11.70;8.13;;;6.80;99.60;;;;;;5096782;28;20436;-66
2021/03/18 08:16:07;;;;;;;7.60;6.53;;;7.70;97.90;;;;;;5095679;28;20469;-62
2021/03/18 08:18:38;;;;;;;19.00;12.77;;;7.70;96.90;;;;;;5078991;28;20673;-63
2021/03/18 08:21:08;;;;;;;9.50;8.50;;;8.20;96.10;;;;;;5097077;28;20986;-63
2021/03/18 08:23:42;;;;;;;9.63;7.93;;;8.20;96.40;;;;;;5096835;28;20429;-63
2021/03/18 08:26:19;;;;;;;11.43;7.23;;;7.30;96.80;;;;;;5095718;28;20436;-62
2021/03/18 08:28:48;;;;;;;8.53;7.10;;;7.70;96.90;;;;;;5096699;28;20428;-63
2021/03/18 08:31:19;;;;;;;10.93;6.90;;;9.60;94.60;;;;;;5095401;28;20468;-64
2021/03/18 08:33:49;;;;;;;11.50;7.33;;;9.90;93.30;;;;;;5096622;28;20470;-66
2021/03/18 08:36:29;;;;;;;8.67;7.20;;;11.40;86.90;;;;;;5097412;28;20963;-63
2021/03/18 08:39:01;;;;;;;8.20;6.30;;;10.50;85.90;;;;;;5098022;28;20522;-63
2021/03/18 08:41:36;;;;;;;11.47;6.20;;;10.50;86.80;;;;;;5097847;28;20454;-63
2021/03/18 08:44:21;;;;;;;8.17;4.77;;;11.70;82.00;;;;;;5097089;28;20431;-63
2021/03/18 08:46:55;;;;;;;8.23;7.30;;;12.00;79.30;;;;;;5096989;28;20472;-63
2021/03/18 08:49:29;;;;;;;9.07;6.63;;;11.90;77.40;;;;;;5097708;28;20431;-63
2021/03/18 08:51:59;;;;;;;8.63;6.47;;;10.60;80.80;;;;;;5099088;28;20444;-67
2021/03/18 08:54:50;;;;;;;8.87;6.50;;;11.40;82.70;;;;;;5099097;28;20479;-64
2021/03/18 08:57:33;;;;;;;9.27;7.43;;;11.10;76.70;;;;;;5107564;28;20428;-65
2021/03/18 09:00:25;;;;;;;8.63;6.20;;;10.70;78.90;;;;;;5115102;28;20466;-63
2021/03/18 09:02:52;;;;;;;8.33;6.97;;;10.00;80.90;;;;;;5090288;28;20464;-63
2021/03/18 09:05:22;;;;;;;12.23;7.13;;;9.50;85.20;;;;;;5095560;28;20436;-63
2021/03/18 09:07:53;;;;;;;7.83;5.57;;;9.20;85.20;;;;;;5094851;28;20459;-64
2021/03/18 09:10:23;;;;;;;9.20;6.93;;;11.40;82.50;;;;;;5095410;28;20426;-66
2021/03/18 09:12:54;;;;;;;6.20;5.60;;;13.70;70.40;;;;;;5095426;28;20453;-63
2021/03/18 09:15:25;;;;;;;6.83;5.80;;;13.80;64.90;;;;;;5094837;28;20464;-63
2021/03/18 09:17:57;;;;;;;8.07;6.63;;;14.00;65.90;;;;;;5095919;28;20434;-63
2021/03/18 09:20:29;;;;;;;9.73;6.70;;;13.20;63.80;;;;;;5095861;28;20484;-63
2021/03/18 09:23:12;;;;;;;7.50;5.80;;;10.40;71.20;;;;;;5076870;28;20436;-63
2021/03/18 09:25:39;;;;;;;7.37;5.80;;;11.20;73.90;;;;;;5093278;28;20509;-63
2021/03/18 09:28:10;;;;;;;7.90;6.07;;;11.20;72.40;;;;;;5095954;28;20440;-66
2021/03/18 09:30:39;;;;;;;6.00;5.47;;;10.90;71.80;;;;;;5099401;28;20480;-64
2021/03/18 09:33:25;;;;;;;10.53;5.40;;;10.50;73.80;;;;;;5098317;28;20486;-64
2021/03/18 09:36:01;;;;;;;7.93;5.13;;;9.70;76.60;;;;;;5114854;28;20449;-64
2021/03/18 09:38:56;;;;;;;7.73;6.90;;;10.00;76.30;;;;;;5097908;28;20446;-63
2021/03/18 09:41:26;;;;;;;6.43;5.83;;;10.60;73.60;;;;;;5115176;28;20442;-64
2021/03/18 09:44:08;;;;;;;7.00;5.97;;;10.10;71.30;;;;;;5115607;28;20435;-64
2021/03/18 09:46:37;;;;;;;6.00;5.40;;;8.80;74.50;;;;;;5113886;28;20486;-64
2021/03/18 09:49:06;;;;;;;6.47;4.70;;;7.70;78.80;;;;;;5115372;28;20440;-64
2021/03/18 09:51:37;;;;;;;7.83;5.20;;;6.90;82.30;;;;;;5097110;28;20480;-63
2021/03/18 09:54:08;;;;;;;6.83;4.53;;;5.90;87.30;;;;;;5114333;28;20498;-63
2021/03/18 09:56:37;;;;;;;5.20;4.60;;;6.00;90.70;;;;;;5080311;28;20450;-63
2021/03/18 09:59:07;;;;;;;8.70;5.00;;;6.00;91.50;;;;;;5095762;28;20505;-64
2021/03/18 10:01:35;;;;;;;7.63;5.20;;;5.70;91.30;;;;;;5093334;28;20503;-64
2021/03/18 10:04:36;;;;;;;7.53;4.57;;;5.30;91.70;;;;;;5097707;28;20422;-64
2021/03/18 10:07:11;;;;;;;6.80;5.03;;;5.10;92.80;;;;;;5061583;28;20446;-67
2021/03/18 10:09:41;;;;;;;5.67;3.80;;;4.80;92.80;;;;;;5086706;28;20435;-64
2021/03/18 10:12:10;;;;;;;7.93;5.07;;;4.60;93.90;;;;;;5094674;28;20417;-65
2021/03/18 10:14:43;;;;;;;5.83;5.27;;;4.60;93.70;;;;;;5075561;28;20432;-65
2021/03/18 10:17:13;;;;;;;6.97;4.97;;;4.70;94.90;;;;;;5093179;28;20481;-64
2021/03/18 10:19:45;;;;;;;5.67;5.03;;;4.80;95.90;;;;;;5095076;28;20461;-64
2021/03/18 10:22:13;;;;;;;7.20;4.73;;;4.80;96.80;;;;;;5075857;28;20444;-64
2021/03/18 10:24:43;;;;;;;5.20;4.40;;;4.80;96.00;;;;;;5096273;28;20927;-64
2021/03/18 10:27:13;;;;;;;5.50;3.93;;;5.00;95.60;;;;;;5095953;28;20477;-65
2021/03/18 10:29:44;;;;;;;5.73;4.80;;;5.10;94.80;;;;;;5095031;28;20780;-65
2021/03/18 10:32:13;;;;;;;6.40;4.33;;;5.10;94.10;;;;;;5094191;28;20444;-67
2021/03/18 10:34:53;;;;;;;7.57;4.57;;;4.90;95.50;;;;;;5095516;28;20854;-69
2021/03/18 10:37:32;;;;;;;8.70;6.33;;;5.00;96.00;;;;;;5095079;28;20429;-64
2021/03/18 10:40:26;;;;;;;8.33;5.73;;;5.00;96.50;;;;;;5095199;28;20475;-65
2021/03/18 10:42:57;;;;;;;6.87;5.50;;;5.00;96.40;;;;;;5095209;28;20448;-66
2021/03/18 10:45:29;;;;;;;7.80;5.13;;;5.30;95.80;;;;;;5095178;28;21010;-65
2021/03/18 10:48:02;;;;;;;5.90;4.90;;;5.90;95.30;;;;;;5094087;28;20507;-64
2021/03/18 10:51:02;;;;;;;7.77;5.13;;;6.70;94.30;;;;;;5095132;28;20426;-63
2021/03/18 10:53:34;;;;;;;6.83;5.37;;;7.40;92.30;;;;;;5095073;28;20414;-63
2021/03/18 10:56:11;;;;;;;9.63;5.73;;;8.50;88.50;;;;;;5093367;28;20521;-64
2021/03/18 10:58:39;;;;;;;5.73;4.80;;;8.90;84.20;;;;;;5096296;28;20472;-63
2021/03/18 11:01:09;;;;;;;9.60;4.97;;;8.80;83.60;;;;;;5098251;28;20492;-65
2021/03/18 11:03:39;;;;;;;5.93;5.30;;;8.40;82.70;;;;;;5103186;28;20425;-64
2021/03/18 11:06:15;;;;;;;6.27;4.77;;;7.60;85.70;;;;;;5104607;28;20966;-63
2021/03/18 11:08:44;;;;;;;6.43;5.03;;;7.10;87.60;;;;;;5103903;28;20459;-66
2021/03/18 11:11:15;;;;;;;9.00;5.50;;;7.50;88.60;;;;;;5107290;28;20426;-63
2021/03/18 11:13:43;;;;;;;6.17;5.00;;;7.30;88.50;;;;;;5086601;28;20427;-67
2021/03/18 11:16:19;;;;;;;6.40;5.37;;;6.90;90.40;;;;;;5109607;28;20471;-64
2021/03/18 11:18:48;;;;;;;8.33;5.83;;;6.30;90.60;;;;;;5099109;28;20420;-67
2021/03/18 11:21:22;;;;;;;7.97;4.80;;;6.00;91.50;;;;;;5100038;28;20467;-63
2021/03/18 11:23:52;;;;;;;6.57;4.97;;;5.90;91.90;;;;;;5098876;28;20416;-66
2021/03/18 11:26:23;;;;;;;7.77;5.17;;;5.50;91.40;;;;;;5099163;28;20989;-66
2021/03/18 11:28:54;;;;;;;4.63;4.17;;;5.50;92.20;;;;;;5081113;28;20913;-63
2021/03/18 11:31:26;;;;;;;6.40;4.43;;;5.20;91.90;;;;;;5097919;28;20470;-64
2021/03/18 11:33:54;;;;;;;6.33;4.50;;;5.40;93.20;;;;;;5080284;28;20422;-63
2021/03/18 11:36:23;;;;;;;5.67;4.50;;;5.50;94.40;;;;;;5099186;28;20412;-63
2021/03/18 11:38:51;;;;;;;4.73;3.10;;;5.50;95.00;;;;;;5081516;28;20408;-64
2021/03/18 11:41:19;;;;;;;5.10;4.50;;;5.40;95.10;;;;;;5082593;28;20570;-64
2021/03/18 11:43:46;;;;;;;7.30;4.43;;;5.30;95.60;;;;;;5098379;28;20437;-63
2021/03/18 11:46:14;;;;;;;4.80;4.30;;;5.50;95.10;;;;;;5096191;28;20472;-66
2021/03/18 11:48:43;;;;;;;6.37;4.47;;;5.60;94.40;;;;;;5079854;28;20407;-64
2021/03/18 11:51:11;;;;;;;5.73;4.80;;;5.60;94.30;;;;;;5099379;28;20475;-64
2021/03/18 11:53:39;;;;;;;5.23;4.23;;;5.50;93.90;;;;;;5080105;28;20901;-64
2021/03/18 11:56:07;;;;;;;5.50;4.23;;;5.50;93.20;;;;;;5079953;28;20943;-65
2021/03/18 11:58:35;;;;;;;5.13;3.73;;;5.30;93.00;;;;;;5102671;28;20414;-64
2021/03/18 12:01:02;;;;;;;4.80;3.50;;;5.30;93.00;;;;;;5099668;28;20484;-64
2021/03/18 12:03:30;;;;;;;5.80;3.00;;;5.40;93.00;;;;;;5081612;28;20821;-64
2021/03/18 12:05:58;;;;;;;6.63;4.07;;;5.60;91.80;;;;;;5081616;28;20433;-67
2021/03/18 12:08:26;;;;;;;5.80;3.17;;;5.70;91.60;;;;;;5098773;28;20434;-64
2021/03/18 12:11:04;;;;;;;5.10;3.87;;;5.90;90.60;;;;;;5083127;28;20931;-65
2021/03/18 12:13:32;;;;;;;5.23;3.93;;;5.90;90.70;;;;;;5100537;28;20413;-64
2021/03/18 12:16:01;;;;;;;4.80;3.80;;;5.80;91.10;;;;;;5097786;28;20500;-67
2021/03/18 12:18:29;;;;;;;6.93;4.57;;;5.70;91.60;;;;;;5098602;28;20434;-64
2021/03/18 12:20:59;;;;;;;3.70;2.73;;;5.80;92.70;;;;;;5098777;28;20846;-63
2021/03/18 12:23:51;;;;;;;7.80;3.53;;;5.80;91.40;;;;;;5067912;28;20428;-63
2021/03/18 12:26:19;;;;;;;7.53;4.70;;;5.80;91.80;;;;;;5080668;28;20433;-65
2021/03/18 12:28:46;;;;;;;4.13;3.70;;;5.80;92.00;;;;;;5098463;28;20417;-64
2021/03/18 12:31:14;;;;;;;3.80;2.90;;;5.70;92.20;;;;;;5078445;28;20470;-63
2021/03/18 12:33:42;;;;;;;6.00;4.03;;;5.90;92.90;;;;;;5096815;28;20528;-63
2021/03/18 12:36:12;;;;;;;5.37;4.27;;;5.60;93.00;;;;;;5078803;28;20476;-63
2021/03/18 12:38:39;;;;;;;8.07;5.60;;;5.60;93.30;;;;;;5096918;28;20429;-68
2021/03/18 12:41:12;;;;;;;5.00;4.10;;;5.40;93.70;;;;;;5097202;28;20490;-64
2021/03/18 12:43:41;;;;;;;6.47;3.97;;;5.10;95.00;;;;;;5097163;28;20808;-63
2021/03/18 12:46:09;;;;;;;4.97;4.20;;;5.00;96.50;;;;;;5095953;28;20468;-64
2021/03/18 12:48:37;;;;;;;4.30;3.90;;;4.90;97.30;;;;;;5078392;28;20460;-64
2021/03/18 12:51:06;;;;;;;5.60;4.23;;;4.90;97.80;;;;;;5096293;28;20884;-64
2021/03/18 12:53:34;;;;;;;5.83;4.80;;;4.70;98.60;;;;;;5096489;28;20411;-64
2021/03/18 12:56:02;;;;;;;6.07;4.40;;;4.80;99.70;;;;;;5096334;28;20500;-63
2021/03/18 12:58:30;;;;;;;6.60;5.03;;;4.70;99.90;;;;;;5078793;28;20403;-65
2021/03/18 13:00:57;;;;;;;7.37;4.53;;;4.90;99.90;;;;;;5097003;28;20477;-64
2021/03/18 13:03:25;;;;;;;6.60;4.83;;;4.70;99.90;;;;;;5105969;28;20428;-64
2021/03/18 13:05:53;;;;;;;6.27;4.53;;;4.90;99.90;;;;;;5086009;28;20429;-63
2021/03/18 13:08:22;;;;;;;7.80;5.70;;;5.50;99.90;;;;;;5083693;28;20785;-66
2021/03/18 13:10:51;;;;;;;5.33;4.83;;;5.90;99.00;;;;;;5102726;28;20424;-67
2021/03/18 13:13:20;;;;;;;6.23;4.70;;;5.70;97.90;;;;;;5103945;28;20434;-65
2021/03/18 13:15:48;;;;;;;6.10;5.40;;;5.20;98.50;;;;;;5099770;28;20435;-63